Time;durP1;ratioP1;P1;durP2;ratioP2;P2;SDS_P1;SDS_P2;PMS_P1;PMS_P2;Temp;Humidity;BMP_temperature;BMP_pressure;BME280_temperature;BME280_humidity;BME280_pressure;Samples;Min_cycle;Max_cycle;Signal;HPM_P1;HPM_P2
2023/07/21 00:00:58;;;;;;;3.85;2.00;;;15.50;81.90;;;;;;5127391;27;20024;-88
2023/07/21 00:03:24;;;;;;;4.00;1.70;;;15.50;82.50;;;;;;5132824;27;20163;-88
2023/07/21 00:05:49;;;;;;;3.80;1.55;;;15.60;82.70;;;;;;5103722;28;20052;-89
2023/07/21 00:08:15;;;;;;;4.40;1.50;;;15.60;82.40;;;;;;5116050;27;20019;-88
2023/07/21 00:10:42;;;;;;;3.80;1.63;;;15.60;82.50;;;;;;5134561;27;20308;-88
2023/07/21 00:13:08;;;;;;;5.65;1.80;;;15.70;82.60;;;;;;5132036;27;20411;-88
2023/07/21 00:15:34;;;;;;;3.90;1.63;;;15.70;82.80;;;;;;5136609;27;20027;-88
2023/07/21 00:17:59;;;;;;;4.28;1.70;;;15.80;82.30;;;;;;5119617;27;20046;-88
2023/07/21 00:20:25;;;;;;;5.90;1.50;;;15.80;82.30;;;;;;5117867;27;20102;-88
2023/07/21 00:22:54;;;;;;;5.53;1.80;;;15.80;83.60;;;;;;5137619;27;20055;-88
2023/07/21 00:25:19;;;;;;;3.80;1.48;;;15.80;82.80;;;;;;5112852;27;20088;-88
2023/07/21 00:27:45;;;;;;;4.07;1.60;;;15.90;82.40;;;;;;5134147;27;20023;-88
2023/07/21 00:30:12;;;;;;;3.45;1.50;;;15.90;82.50;;;;;;5135194;27;20063;-87
2023/07/21 00:32:41;;;;;;;3.42;1.50;;;16.00;82.50;;;;;;5100852;28;20317;-88
2023/07/21 00:35:09;;;;;;;4.05;1.58;;;16.00;82.90;;;;;;5117210;28;20080;-88
2023/07/21 00:37:35;;;;;;;5.60;1.83;;;16.00;83.00;;;;;;5113995;28;20020;-87
2023/07/21 00:40:04;;;;;;;6.13;1.60;;;16.00;83.90;;;;;;5109449;28;20027;-88
2023/07/21 00:42:30;;;;;;;3.03;1.52;;;16.00;84.20;;;;;;5114837;28;20051;-87
2023/07/21 00:44:56;;;;;;;5.95;1.80;;;15.90;84.00;;;;;;5095713;28;20031;-87
2023/07/21 00:47:23;;;;;;;4.68;1.65;;;15.70;84.60;;;;;;5130909;27;20056;-88
2023/07/21 00:49:49;;;;;;;4.25;1.70;;;15.70;84.50;;;;;;5117100;28;20519;-87
2023/07/21 00:52:18;;;;;;;6.53;2.47;;;15.60;84.00;;;;;;5114744;28;20027;-88
2023/07/21 00:54:44;;;;;;;4.35;1.80;;;15.60;84.20;;;;;;5115110;28;20119;-88
2023/07/21 00:57:10;;;;;;;5.22;1.73;;;15.60;83.20;;;;;;5113220;28;20403;-87
2023/07/21 00:59:36;;;;;;;7.97;1.88;;;15.60;83.10;;;;;;5107723;27;20027;-87
2023/07/21 01:02:03;;;;;;;4.47;2.00;;;15.60;82.30;;;;;;5114107;28;20027;-87
2023/07/21 01:04:30;;;;;;;5.32;1.58;;;15.70;81.70;;;;;;5097699;28;20035;-86
2023/07/21 01:07:01;;;;;;;4.60;2.00;;;15.70;81.90;;;;;;5114663;28;20324;-87
2023/07/21 01:09:27;;;;;;;3.90;1.50;;;15.80;82.00;;;;;;5116457;28;20034;-86
2023/07/21 01:11:54;;;;;;;5.97;1.85;;;15.80;82.70;;;;;;5100233;28;20439;-87
2023/07/21 01:14:19;;;;;;;5.65;2.00;;;15.90;83.40;;;;;;5110745;27;20434;-87
2023/07/21 01:16:46;;;;;;;4.20;1.60;;;15.90;83.80;;;;;;5117344;28;20020;-86
2023/07/21 01:19:15;;;;;;;6.20;1.70;;;15.80;83.00;;;;;;5101023;28;20016;-85
2023/07/21 01:21:57;;;;;;;5.03;1.70;;;15.80;82.40;;;;;;5110468;28;20039;-85
2023/07/21 01:24:39;;;;;;;6.63;1.95;;;15.70;82.20;;;;;;5098974;28;20451;-85
2023/07/21 01:27:06;;;;;;;7.15;1.70;;;15.80;82.00;;;;;;5099167;28;20094;-86
2023/07/21 01:29:34;;;;;;;3.65;1.60;;;15.80;82.60;;;;;;5110122;28;20027;-86
2023/07/21 01:32:03;;;;;;;5.07;1.80;;;15.70;83.50;;;;;;5112486;28;20051;-87
2023/07/21 01:34:32;;;;;;;3.55;1.73;;;15.70;83.50;;;;;;5097352;28;20028;-86
2023/07/21 01:37:00;;;;;;;4.13;1.83;;;15.60;83.30;;;;;;5111370;27;20081;-87
2023/07/21 01:39:27;;;;;;;3.70;1.63;;;15.50;83.10;;;;;;5092039;28;20026;-87
2023/07/21 01:41:54;;;;;;;5.10;1.95;;;15.40;83.30;;;;;;5117622;28;20024;-87
2023/07/21 01:44:22;;;;;;;3.25;1.63;;;15.40;83.80;;;;;;5097967;28;20051;-87
2023/07/21 01:46:48;;;;;;;4.03;1.77;;;15.40;84.30;;;;;;5105298;28;20500;-86
2023/07/21 01:49:17;;;;;;;3.00;1.42;;;15.40;84.80;;;;;;5111229;28;20028;-86
2023/07/21 01:51:46;;;;;;;3.83;1.60;;;15.40;85.20;;;;;;5102514;28;20059;-87
2023/07/21 01:54:21;;;;;;;6.05;1.63;;;15.40;84.60;;;;;;5100327;28;20032;-87
2023/07/21 01:56:55;;;;;;;4.80;2.05;;;15.30;83.80;;;;;;5107786;28;20019;-87
2023/07/21 01:59:22;;;;;;;3.50;1.73;;;15.20;83.60;;;;;;5104001;28;20048;-87
2023/07/21 02:01:50;;;;;;;3.22;1.55;;;15.20;83.40;;;;;;5097018;28;20044;-87
2023/07/21 02:04:16;;;;;;;5.05;1.70;;;15.20;83.10;;;;;;5097067;28;20028;-87
2023/07/21 02:06:45;;;;;;;3.95;1.70;;;15.10;83.40;;;;;;5101512;28;20032;-87
2023/07/21 02:09:10;;;;;;;3.47;1.58;;;15.00;83.80;;;;;;5102490;28;20028;-88
2023/07/21 02:11:36;;;;;;;5.28;1.92;;;15.00;83.70;;;;;;5099197;28;20332;-87
2023/07/21 02:14:02;;;;;;;5.85;1.70;;;14.90;84.10;;;;;;5108250;27;20062;-87
2023/07/21 02:16:27;;;;;;;4.28;1.73;;;14.80;84.40;;;;;;5115571;28;20031;-86
2023/07/21 02:18:54;;;;;;;4.32;1.77;;;14.80;84.40;;;;;;5115041;28;20043;-87
2023/07/21 02:21:20;;;;;;;4.10;1.80;;;14.70;84.00;;;;;;5107653;28;20102;-86
2023/07/21 02:23:45;;;;;;;3.92;1.90;;;14.60;84.30;;;;;;5110921;28;20108;-85
2023/07/21 02:26:11;;;;;;;4.07;1.70;;;14.50;84.00;;;;;;5111789;27;20028;-87
2023/07/21 02:28:37;;;;;;;3.13;1.60;;;14.60;84.00;;;;;;5105808;27;20102;-87
2023/07/21 02:31:03;;;;;;;4.65;1.70;;;14.60;84.30;;;;;;5104031;28;20107;-87
2023/07/21 02:33:30;;;;;;;3.70;1.75;;;14.50;84.60;;;;;;5116403;28;20036;-86
2023/07/21 02:35:57;;;;;;;3.22;1.70;;;14.60;85.00;;;;;;5114540;28;20019;-87
2023/07/21 02:38:23;;;;;;;4.05;1.85;;;14.60;85.50;;;;;;5115173;28;20011;-87
2023/07/21 02:40:50;;;;;;;10.63;1.92;;;14.60;84.90;;;;;;5114590;28;20024;-87
2023/07/21 02:43:17;;;;;;;5.65;1.80;;;14.70;84.30;;;;;;5116501;28;20047;-87
2023/07/21 02:45:49;;;;;;;3.85;2.08;;;14.80;83.40;;;;;;5116620;28;20091;-87
2023/07/21 02:48:16;;;;;;;5.05;1.88;;;14.90;83.10;;;;;;5115530;28;20469;-87
2023/07/21 02:50:42;;;;;;;3.95;1.67;;;15.00;83.10;;;;;;5114631;28;20023;-88
2023/07/21 02:53:08;;;;;;;3.85;1.70;;;15.10;83.30;;;;;;5098534;28;20020;-87
2023/07/21 02:55:33;;;;;;;4.95;1.90;;;15.10;84.00;;;;;;5116027;28;20031;-88
2023/07/21 02:57:59;;;;;;;4.10;1.75;;;15.00;84.40;;;;;;5115244;28;20404;-88
2023/07/21 03:00:25;;;;;;;4.45;1.75;;;15.00;84.70;;;;;;5115157;28;20027;-87
2023/07/21 03:02:50;;;;;;;4.68;1.73;;;15.00;84.40;;;;;;5097909;28;20536;-88
2023/07/21 03:05:16;;;;;;;4.20;1.60;;;15.00;84.60;;;;;;5114201;28;20394;-88
2023/07/21 03:07:42;;;;;;;5.57;2.20;;;15.00;85.00;;;;;;5115283;28;20058;-88
2023/07/21 03:10:12;;;;;;;4.47;1.90;;;15.00;85.40;;;;;;5116069;28;20160;-88
2023/07/21 03:12:37;;;;;;;3.92;1.90;;;14.90;85.50;;;;;;5115816;28;20112;-87
2023/07/21 03:15:05;;;;;;;4.75;2.10;;;14.90;84.60;;;;;;5116106;28;20427;-88
2023/07/21 03:17:32;;;;;;;4.95;1.70;;;14.70;85.80;;;;;;5115425;28;20043;-88
2023/07/21 03:19:59;;;;;;;3.63;1.73;;;14.60;86.40;;;;;;5115192;28;20020;-87
2023/07/21 03:22:27;;;;;;;3.38;1.73;;;14.50;85.30;;;;;;5114347;28;20039;-87
2023/07/21 03:24:53;;;;;;;5.03;1.83;;;14.50;85.20;;;;;;5093439;28;20084;-87
2023/07/21 03:27:18;;;;;;;3.38;1.77;;;14.40;85.90;;;;;;5096613;28;20027;-88
2023/07/21 03:29:46;;;;;;;4.43;1.90;;;14.40;86.60;;;;;;5095285;28;20032;-88
2023/07/21 03:32:11;;;;;;;7.05;1.95;;;14.30;86.70;;;;;;5125854;27;20447;-87
2023/07/21 03:34:37;;;;;;;5.78;1.90;;;14.30;86.40;;;;;;5110895;27;20038;-88
2023/07/21 03:37:04;;;;;;;3.85;1.80;;;14.20;87.30;;;;;;5110467;27;20030;-88
2023/07/21 03:39:30;;;;;;;5.60;2.13;;;14.20;87.40;;;;;;5130089;27;20025;-87
2023/07/21 03:41:57;;;;;;;8.35;1.92;;;14.10;87.00;;;;;;5111082;27;20413;-88
2023/07/21 03:44:22;;;;;;;3.97;2.00;;;14.10;86.60;;;;;;5107765;27;20118;-88
2023/07/21 03:46:48;;;;;;;4.88;2.10;;;14.00;87.80;;;;;;5133456;27;20142;-88
2023/07/21 03:49:13;;;;;;;4.75;2.00;;;13.90;88.40;;;;;;5135671;27;20402;-88
2023/07/21 03:51:40;;;;;;;4.70;2.00;;;13.90;88.80;;;;;;5129626;27;20384;-88
2023/07/21 03:54:05;;;;;;;4.03;2.00;;;13.80;88.80;;;;;;5117095;27;20084;-87
2023/07/21 03:56:31;;;;;;;4.78;1.83;;;13.70;89.50;;;;;;5130359;27;21194;-88
2023/07/21 03:58:58;;;;;;;4.00;1.90;;;13.60;89.50;;;;;;5138357;27;20094;-87
2023/07/21 04:01:24;;;;;;;3.75;2.10;;;13.40;90.00;;;;;;5136345;27;20265;-89
2023/07/21 04:03:51;;;;;;;4.82;2.10;;;13.50;90.00;;;;;;5117986;27;20059;-88
2023/07/21 04:06:20;;;;;;;4.70;2.03;;;13.40;90.40;;;;;;5133953;27;20019;-89
2023/07/21 04:08:46;;;;;;;6.10;2.22;;;13.40;91.70;;;;;;5136118;27;20023;-88
2023/07/21 04:11:11;;;;;;;5.28;2.38;;;13.40;91.90;;;;;;5131349;27;20491;-89
2023/07/21 04:13:37;;;;;;;4.40;1.90;;;13.40;91.80;;;;;;5137454;27;20106;-86
2023/07/21 04:16:03;;;;;;;3.70;1.95;;;13.50;91.20;;;;;;5132413;27;20030;-87
2023/07/21 04:18:28;;;;;;;4.68;1.95;;;13.60;90.30;;;;;;5126825;27;20019;-87
2023/07/21 04:20:54;;;;;;;4.90;2.30;;;13.70;89.90;;;;;;5137297;27;20027;-87
2023/07/21 04:23:20;;;;;;;5.75;1.90;;;13.90;88.90;;;;;;5125358;27;20023;-88
2023/07/21 04:25:46;;;;;;;4.10;2.03;;;14.10;88.30;;;;;;5135964;27;20323;-90
2023/07/21 04:28:12;;;;;;;3.60;1.90;;;14.30;88.50;;;;;;5137347;27;20023;-89
2023/07/21 04:30:38;;;;;;;4.40;1.92;;;14.30;88.80;;;;;;5135208;27;20087;-90
2023/07/21 04:33:03;;;;;;;5.25;2.20;;;14.30;87.90;;;;;;5118922;27;20060;-90
2023/07/21 04:35:29;;;;;;;4.22;2.03;;;14.50;87.00;;;;;;5116134;28;20437;-89
2023/07/21 04:37:55;;;;;;;3.88;1.83;;;14.60;87.20;;;;;;5111048;28;20019;-90
2023/07/21 04:40:20;;;;;;;4.78;2.30;;;14.60;87.30;;;;;;5099635;28;20042;-90
2023/07/21 04:42:51;;;;;;;3.80;1.73;;;14.60;88.10;;;;;;5118263;28;20053;-90
2023/07/21 04:45:24;;;;;;;4.80;2.00;;;14.50;88.70;;;;;;5118023;28;20035;-90
2023/07/21 04:48:20;;;;;;;;;;;;;;;;;;;;;
2023/07/21 04:51:09;;;;;;;3.22;1.60;;;14.40;89.10;;;;;;5117047;28;20328;-90
2023/07/21 04:58:02;;;;;;;;;;;;;;;;;;;;;
2023/07/21 05:00:37;;;;;;;;;;;;;;;;;;;;;
2023/07/21 07:22:58;;;;;;;5.32;1.90;;;22.80;63.60;;;;;;5029472;28;20049;-88
2023/07/21 07:25:26;;;;;;;4.63;1.92;;;22.80;64.00;;;;;;5114815;28;20046;-86
2023/07/21 07:27:53;;;;;;;5.63;1.88;;;22.90;63.50;;;;;;5127236;27;20038;-86
2023/07/21 07:30:20;;;;;;;4.88;2.28;;;23.00;62.30;;;;;;5140283;27;20420;-86
2023/07/21 07:32:46;;;;;;;4.60;2.15;;;22.80;62.80;;;;;;5129330;27;20049;-87
2023/07/21 07:35:11;;;;;;;5.38;1.92;;;22.70;64.40;;;;;;5138395;27;20040;-86
2023/07/21 07:37:37;;;;;;;5.32;1.73;;;23.00;64.70;;;;;;5140610;27;20455;-87
2023/07/21 07:40:05;;;;;;;5.95;2.13;;;23.00;64.70;;;;;;5136372;27;20024;-86
2023/07/21 07:42:33;;;;;;;4.80;2.00;;;23.30;64.30;;;;;;5127907;27;20027;-85
2023/07/21 07:45:00;;;;;;;5.53;2.00;;;23.60;63.70;;;;;;5120721;27;20031;-85
2023/07/21 07:47:26;;;;;;;3.83;1.83;;;23.60;63.20;;;;;;5135083;27;20411;-85
2023/07/21 07:49:52;;;;;;;4.30;1.98;;;23.70;62.70;;;;;;5105368;27;20410;-85
2023/07/21 07:52:18;;;;;;;4.38;1.70;;;23.90;62.60;;;;;;5138637;27;20064;-84
2023/07/21 07:54:44;;;;;;;4.65;2.10;;;23.90;62.20;;;;;;5121310;27;20027;-86
2023/07/21 07:57:14;;;;;;;4.50;2.10;;;23.90;60.60;;;;;;5131907;27;20101;-86
2023/07/21 07:59:40;;;;;;;3.80;1.90;;;23.40;61.90;;;;;;5122641;27;20364;-85
2023/07/21 08:02:06;;;;;;;4.22;1.90;;;22.70;62.30;;;;;;5139166;27;20031;-85
2023/07/21 08:04:31;;;;;;;3.70;1.95;;;23.10;61.70;;;;;;5137736;27;20342;-85
2023/07/21 08:06:57;;;;;;;4.45;1.80;;;23.90;61.20;;;;;;5139330;27;20023;-86
2023/07/21 08:09:23;;;;;;;4.18;1.70;;;24.20;60.70;;;;;;5140130;27;20024;-85
2023/07/21 08:11:49;;;;;;;4.05;1.90;;;24.20;59.40;;;;;;5125395;27;20061;-85
2023/07/21 08:14:14;;;;;;;3.55;1.80;;;24.40;60.70;;;;;;5119761;28;20020;-85
2023/07/21 08:16:40;;;;;;;4.97;1.67;;;23.90;61.10;;;;;;5125349;27;20027;-85
2023/07/21 08:19:05;;;;;;;4.50;1.90;;;24.20;60.90;;;;;;5139162;27;20400;-85
2023/07/21 08:21:31;;;;;;;5.32;1.98;;;24.30;60.30;;;;;;5138617;27;20034;-84
2023/07/21 08:23:57;;;;;;;3.97;1.95;;;25.10;60.50;;;;;;5139944;27;20035;-86
2023/07/21 08:26:23;;;;;;;5.07;1.90;;;25.80;58.90;;;;;;5121201;27;20027;-85
2023/07/21 08:28:52;;;;;;;4.20;1.60;;;26.00;57.60;;;;;;5138620;27;20076;-85
2023/07/21 08:31:18;;;;;;;5.75;1.80;;;26.50;57.50;;;;;;5139404;27;20023;-85
2023/07/21 08:33:44;;;;;;;4.30;1.92;;;26.80;56.60;;;;;;5127320;27;20037;-85
2023/07/21 08:36:09;;;;;;;3.60;1.67;;;27.20;55.80;;;;;;5117600;28;20362;-86
2023/07/21 08:38:35;;;;;;;3.90;1.70;;;26.00;56.80;;;;;;5101165;28;20035;-85
2023/07/21 08:41:07;;;;;;;6.97;1.88;;;26.20;57.50;;;;;;5115622;28;20148;-86
2023/07/21 08:43:33;;;;;;;4.80;1.90;;;26.30;57.60;;;;;;5118602;28;20028;-86
2023/07/21 08:46:01;;;;;;;4.30;1.83;;;26.30;57.40;;;;;;5100931;28;20084;-86
2023/07/21 08:48:31;;;;;;;9.18;2.40;;;26.10;57.20;;;;;;5118213;28;20024;-86
2023/07/21 08:50:57;;;;;;;6.15;2.05;;;25.60;59.00;;;;;;5094243;28;20028;-85
2023/07/21 08:53:24;;;;;;;5.70;1.77;;;25.90;58.20;;;;;;5119034;28;20051;-86
2023/07/21 08:55:53;;;;;;;4.53;1.88;;;26.70;56.80;;;;;;5117414;28;20027;-86
2023/07/21 08:58:20;;;;;;;4.53;1.63;;;26.70;56.10;;;;;;5118540;28;20024;-87
2023/07/21 09:00:47;;;;;;;4.90;1.70;;;26.90;56.20;;;;;;5114626;28;20412;-86
2023/07/21 09:03:21;;;;;;;4.68;1.88;;;27.00;55.70;;;;;;5118868;28;20016;-86
2023/07/21 09:05:47;;;;;;;4.55;1.88;;;26.80;55.40;;;;;;5117640;28;20099;-86
2023/07/21 09:08:24;;;;;;;5.25;1.90;;;27.00;56.30;;;;;;5118355;28;20020;-86
2023/07/21 09:10:50;;;;;;;4.40;1.98;;;27.50;55.70;;;;;;5109323;28;20020;-86
2023/07/21 09:13:19;;;;;;;5.15;1.70;;;27.30;55.60;;;;;;5100276;28;20024;-86
2023/07/21 09:16:05;;;;;;;3.67;1.63;;;26.90;55.00;;;;;;5117422;28;20024;-87
2023/07/21 09:18:35;;;;;;;10.23;2.70;;;26.50;55.60;;;;;;5115647;28;20324;-86
2023/07/21 09:21:01;;;;;;;5.15;1.70;;;26.10;56.30;;;;;;5117051;28;20032;-86
2023/07/21 09:23:29;;;;;;;3.60;1.52;;;27.00;55.80;;;;;;5118351;28;20055;-86
2023/07/21 09:25:57;;;;;;;3.90;1.60;;;28.00;54.10;;;;;;5118344;28;20023;-86
2023/07/21 09:28:42;;;;;;;4.03;1.65;;;28.30;52.10;;;;;;5118022;28;20061;-86
2023/07/21 09:31:08;;;;;;;3.83;1.67;;;28.20;52.60;;;;;;5115898;28;20103;-86
2023/07/21 09:33:44;;;;;;;4.95;1.60;;;28.50;52.80;;;;;;5116751;28;20127;-86
2023/07/21 09:36:15;;;;;;;3.88;1.58;;;29.40;51.80;;;;;;5115527;28;20019;-86
2023/07/21 09:38:41;;;;;;;6.15;1.60;;;29.50;51.80;;;;;;5116850;28;20027;-86
2023/07/21 09:41:19;;;;;;;4.03;1.55;;;28.90;52.10;;;;;;5117706;28;20031;-85
2023/07/21 09:43:44;;;;;;;4.28;1.70;;;28.30;53.80;;;;;;5108176;28;20020;-87
2023/07/21 09:46:10;;;;;;;3.53;1.55;;;28.20;54.60;;;;;;5115997;28;20020;-87
2023/07/21 09:48:37;;;;;;;3.88;1.63;;;28.10;54.40;;;;;;5116271;28;20099;-86
2023/07/21 09:51:09;;;;;;;5.30;1.83;;;28.30;53.60;;;;;;5098548;28;20081;-86
2023/07/21 09:53:36;;;;;;;4.43;1.90;;;28.80;53.20;;;;;;5116285;28;20051;-86
2023/07/21 09:56:03;;;;;;;6.15;1.65;;;29.40;51.90;;;;;;5097535;28;20027;-86
2023/07/21 09:58:30;;;;;;;3.80;1.60;;;30.00;51.60;;;;;;5117039;28;20016;-87
2023/07/21 10:01:02;;;;;;;4.85;1.85;;;29.50;53.60;;;;;;5097226;28;20020;-86
2023/07/21 10:03:29;;;;;;;5.15;1.55;;;30.00;52.20;;;;;;5112466;28;20028;-85
2023/07/21 10:05:56;;;;;;;5.88;1.70;;;30.50;51.20;;;;;;5094150;28;20367;-84
2023/07/21 10:08:22;;;;;;;5.18;1.90;;;30.50;50.60;;;;;;5117544;28;20301;-84
2023/07/21 10:10:48;;;;;;;3.85;1.70;;;30.80;52.20;;;;;;5116795;28;20023;-85
2023/07/21 10:13:17;;;;;;;7.28;1.60;;;31.20;51.50;;;;;;5116608;28;20480;-85
2023/07/21 10:15:46;;;;;;;4.40;1.70;;;31.20;49.70;;;;;;5117154;28;20031;-86
2023/07/21 10:18:14;;;;;;;6.32;2.00;;;30.80;50.60;;;;;;5115740;28;20076;-86
2023/07/21 10:20:43;;;;;;;7.13;1.80;;;30.30;51.70;;;;;;5113761;28;20034;-85
2023/07/21 10:23:10;;;;;;;4.13;2.00;;;29.30;52.90;;;;;;5099203;28;20032;-86
2023/07/21 10:25:48;;;;;;;6.55;2.25;;;28.90;53.70;;;;;;5116847;28;20085;-87
2023/07/21 10:28:14;;;;;;;5.30;2.00;;;28.80;54.80;;;;;;5117227;28;20027;-86
2023/07/21 10:30:41;;;;;;;3.90;1.77;;;28.90;54.70;;;;;;5115553;28;20078;-86
2023/07/21 10:33:16;;;;;;;6.28;2.10;;;28.40;54.60;;;;;;5116172;28;20030;-86
2023/07/21 10:35:41;;;;;;;6.22;1.90;;;28.60;54.60;;;;;;5115718;28;20050;-85
2023/07/21 10:38:20;;;;;;;3.95;1.98;;;27.20;57.50;;;;;;5116880;28;20023;-85
2023/07/21 10:40:46;;;;;;;4.40;1.75;;;27.60;56.80;;;;;;5116358;28;20020;-85
2023/07/21 10:43:12;;;;;;;4.25;1.80;;;28.20;56.60;;;;;;5116820;28;20023;-85
2023/07/21 10:45:38;;;;;;;4.18;1.70;;;28.30;55.60;;;;;;5116834;28;20024;-86
2023/07/21 10:48:11;;;;;;;7.13;1.83;;;28.20;55.50;;;;;;5115776;28;20315;-85
2023/07/21 10:50:41;;;;;;;4.40;1.90;;;28.00;56.20;;;;;;5112977;28;20412;-85
2023/07/21 10:53:07;;;;;;;4.28;1.92;;;27.40;56.70;;;;;;5084675;28;20108;-86
2023/07/21 10:55:36;;;;;;;8.40;1.80;;;26.60;58.10;;;;;;5116682;28;20103;-85
2023/07/21 10:58:02;;;;;;;4.22;1.80;;;26.50;59.70;;;;;;5116584;28;20030;-85
2023/07/21 11:00:28;;;;;;;4.82;1.70;;;25.90;58.00;;;;;;5116652;28;20016;-85
2023/07/21 11:02:54;;;;;;;5.97;2.53;;;25.20;60.70;;;;;;5115169;28;20116;-86
2023/07/21 11:05:23;;;;;;;6.03;2.10;;;25.00;60.80;;;;;;5114464;28;20115;-85
2023/07/21 11:07:49;;;;;;;4.15;1.85;;;25.10;63.50;;;;;;5114442;28;20027;-86
2023/07/21 11:10:15;;;;;;;4.00;1.90;;;25.30;63.10;;;;;;5116086;28;20461;-86
2023/07/21 11:12:41;;;;;;;3.97;1.85;;;25.40;63.60;;;;;;5116567;28;20077;-86
2023/07/21 11:15:09;;;;;;;3.95;1.90;;;25.20;62.80;;;;;;5116425;28;20027;-86
2023/07/21 11:17:35;;;;;;;6.50;2.10;;;24.80;61.30;;;;;;5116132;28;20039;-85
2023/07/21 11:20:10;;;;;;;4.45;2.13;;;24.20;62.70;;;;;;5113427;28;20043;-86
2023/07/21 11:22:36;;;;;;;7.00;2.03;;;24.00;62.50;;;;;;5114720;28;20024;-85
2023/07/21 11:25:12;;;;;;;3.88;2.17;;;23.90;63.30;;;;;;5116362;28;20022;-84
2023/07/21 11:27:48;;;;;;;6.72;2.10;;;23.60;65.20;;;;;;5116446;28;20030;-84
2023/07/21 11:30:20;;;;;;;6.57;2.05;;;23.10;65.10;;;;;;5116129;28;20471;-85
2023/07/21 11:32:46;;;;;;;6.50;2.10;;;23.00;66.80;;;;;;5115676;28;20036;-85
2023/07/21 11:35:12;;;;;;;5.82;2.47;;;22.90;71.00;;;;;;5125279;27;20031;-85
2023/07/21 11:37:40;;;;;;;5.70;2.30;;;22.50;73.60;;;;;;5127548;27;20446;-85
2023/07/21 11:40:15;;;;;;;7.22;2.35;;;21.70;70.80;;;;;;5128415;27;20019;-86
2023/07/21 11:42:49;;;;;;;6.65;2.40;;;21.10;74.80;;;;;;5118509;27;20614;-86
2023/07/21 11:45:33;;;;;;;5.32;2.58;;;20.50;78.80;;;;;;5136375;27;20319;-87
2023/07/21 11:48:35;;;;;;;7.40;2.78;;;20.00;84.00;;;;;;5136583;27;20023;-88
2023/07/21 12:04:51;;;;;;;8.73;2.60;;;18.70;94.50;;;;;;5014498;28;20312;-87
2023/07/21 12:07:22;;;;;;;9.85;2.55;;;18.90;94.90;;;;;;5134464;27;20024;-87
2023/07/21 12:09:49;;;;;;;4.82;2.70;;;19.30;94.80;;;;;;5136440;27;20050;-88
2023/07/21 12:12:15;;;;;;;7.40;2.50;;;19.80;92.90;;;;;;5109921;27;20427;-88
2023/07/21 12:14:41;;;;;;;5.75;2.35;;;20.10;92.30;;;;;;5140382;27;20030;-87
2023/07/21 12:17:07;;;;;;;4.50;2.20;;;20.70;91.00;;;;;;5140240;27;20024;-88
2023/07/21 12:19:34;;;;;;;6.32;2.60;;;21.50;87.10;;;;;;5140088;27;20027;-87
2023/07/21 12:22:00;;;;;;;4.20;2.08;;;22.30;84.30;;;;;;5138739;27;20035;-87
2023/07/21 12:24:25;;;;;;;6.68;2.30;;;23.30;79.20;;;;;;5139788;27;20123;-87
2023/07/21 12:26:54;;;;;;;5.65;2.30;;;24.00;79.50;;;;;;5129817;27;20023;-87
2023/07/21 12:29:19;;;;;;;6.05;2.10;;;24.80;76.40;;;;;;5140068;27;20101;-87
2023/07/21 12:31:45;;;;;;;5.15;2.25;;;25.60;73.80;;;;;;5139940;27;20027;-87
2023/07/21 12:34:11;;;;;;;5.60;2.40;;;26.80;69.60;;;;;;5139792;27;20043;-86
2023/07/21 12:36:37;;;;;;;5.35;1.90;;;27.40;67.20;;;;;;5138370;27;20103;-87
2023/07/21 12:39:04;;;;;;;3.92;1.80;;;27.30;63.40;;;;;;5139396;27;20415;-86
2023/07/21 12:41:30;;;;;;;5.10;2.00;;;27.50;60.40;;;;;;5131938;27;20011;-87
2023/07/21 12:43:55;;;;;;;4.35;1.88;;;27.20;61.80;;;;;;5139179;27;20084;-87
2023/07/21 12:46:21;;;;;;;5.75;2.10;;;26.60;62.20;;;;;;5139751;27;20054;-86
2023/07/21 12:48:47;;;;;;;3.97;2.00;;;26.10;62.90;;;;;;5139739;27;20015;-86
2023/07/21 12:51:13;;;;;;;4.28;1.92;;;25.40;64.10;;;;;;5138468;27;20034;-86
2023/07/21 12:53:39;;;;;;;8.32;2.20;;;25.10;64.60;;;;;;5139189;27;20019;-85
2023/07/21 12:56:08;;;;;;;5.15;2.58;;;24.70;66.50;;;;;;5137674;27;20080;-85
2023/07/21 12:58:34;;;;;;;4.50;2.03;;;24.20;66.90;;;;;;5139484;27;20022;-84
2023/07/21 13:00:59;;;;;;;4.25;1.90;;;23.80;67.90;;;;;;5129911;27;20023;-83
2023/07/21 13:03:25;;;;;;;4.20;1.98;;;23.60;67.00;;;;;;5138572;27;20023;-85
2023/07/21 13:05:51;;;;;;;7.75;2.20;;;23.30;68.60;;;;;;5137889;27;20076;-85
2023/07/21 13:08:19;;;;;;;6.60;2.03;;;23.00;68.30;;;;;;5128224;27;20054;-86
2023/07/21 13:10:45;;;;;;;7.47;2.05;;;22.50;69.10;;;;;;5121804;27;20469;-87
2023/07/21 13:13:11;;;;;;;6.70;2.15;;;21.90;70.90;;;;;;5138567;27;20035;-87
2023/07/21 13:15:37;;;;;;;8.25;2.65;;;21.60;73.20;;;;;;5138533;27;20432;-87
2023/07/21 13:18:03;;;;;;;5.63;2.38;;;21.40;74.20;;;;;;5117810;27;20024;-87
2023/07/21 13:20:28;;;;;;;6.88;2.45;;;21.30;74.80;;;;;;5119654;27;20043;-87
2023/07/21 13:22:54;;;;;;;7.00;1.83;;;21.30;75.00;;;;;;5110813;27;20439;-86
2023/07/21 13:25:20;;;;;;;6.65;2.00;;;21.20;74.80;;;;;;5138528;27;20327;-87
2023/07/21 13:27:46;;;;;;;6.18;2.25;;;21.10;74.90;;;;;;5130086;27;20153;-86
2023/07/21 13:30:11;;;;;;;7.95;2.20;;;21.10;74.80;;;;;;5100221;28;20407;-87
2023/07/21 13:32:39;;;;;;;5.32;2.15;;;20.90;75.30;;;;;;5127711;27;20320;-85
2023/07/21 13:35:05;;;;;;;10.00;2.55;;;20.70;76.20;;;;;;5137027;27;20050;-85
2023/07/21 13:37:31;;;;;;;5.45;2.22;;;20.70;76.50;;;;;;5114916;27;20423;-86
2023/07/21 13:39:57;;;;;;;5.13;2.20;;;20.60;76.40;;;;;;5137309;27;20038;-87
2023/07/21 13:42:23;;;;;;;9.02;2.20;;;20.60;76.10;;;;;;5120285;27;20028;-85
2023/07/21 13:44:49;;;;;;;7.05;2.20;;;20.70;75.70;;;;;;5138343;27;20027;-87
2023/07/21 13:47:16;;;;;;;4.15;1.70;;;20.70;75.00;;;;;;5135095;27;20059;-86
2023/07/21 13:49:41;;;;;;;4.82;1.85;;;20.80;75.10;;;;;;5121111;27;20054;-87
2023/07/21 13:52:07;;;;;;;5.78;1.95;;;20.70;75.10;;;;;;5144603;27;20390;-87
2023/07/21 13:54:33;;;;;;;5.47;2.10;;;20.60;75.30;;;;;;5138316;27;20035;-88
2023/07/21 13:56:58;;;;;;;6.65;2.13;;;20.50;75.90;;;;;;5138340;27;20015;-87
2023/07/21 13:59:24;;;;;;;6.50;2.00;;;20.50;75.50;;;;;;5138277;27;20054;-87
2023/07/21 14:01:51;;;;;;;5.18;2.15;;;20.70;75.40;;;;;;5120036;27;20047;-87
2023/07/21 14:04:17;;;;;;;6.03;2.13;;;20.70;76.00;;;;;;5138197;27;20082;-87
2023/07/21 14:06:42;;;;;;;5.30;2.40;;;20.60;75.70;;;;;;5110886;27;20085;-88
2023/07/21 14:09:10;;;;;;;4.47;2.40;;;20.70;75.30;;;;;;5136574;27;20027;-88
2023/07/21 14:11:36;;;;;;;7.93;2.33;;;20.60;76.10;;;;;;5138140;27;20027;-88
2023/07/21 14:14:05;;;;;;;8.20;2.53;;;20.50;77.20;;;;;;5118994;27;20050;-87
2023/07/21 14:16:31;;;;;;;7.88;2.42;;;20.20;78.50;;;;;;5133041;27;20264;-87
2023/07/21 14:18:58;;;;;;;6.03;2.25;;;20.00;79.30;;;;;;5135211;27;20105;-87
2023/07/21 14:21:24;;;;;;;6.47;2.50;;;19.90;80.00;;;;;;5113220;27;20374;-86
2023/07/21 14:23:50;;;;;;;6.32;2.55;;;20.30;79.40;;;;;;5134443;27;20023;-86
2023/07/21 14:26:17;;;;;;;6.05;2.60;;;20.50;77.80;;;;;;5123572;27;20033;-87
2023/07/21 14:28:45;;;;;;;5.50;2.33;;;20.20;78.40;;;;;;5129249;27;20011;-87
2023/07/21 14:31:11;;;;;;;6.28;2.47;;;19.90;79.10;;;;;;5136411;27;20490;-85
2023/07/21 14:33:37;;;;;;;7.20;2.10;;;19.90;79.40;;;;;;5132727;27;20038;-87
2023/07/21 14:36:12;;;;;;;4.70;2.33;;;19.80;79.70;;;;;;5129228;27;20110;-88
2023/07/21 14:38:37;;;;;;;5.60;2.67;;;19.50;80.10;;;;;;5132160;27;20098;-86
2023/07/21 14:41:04;;;;;;;7.63;2.00;;;19.30;80.80;;;;;;5133994;27;20118;-87
2023/07/21 14:43:30;;;;;;;6.18;2.50;;;19.00;81.20;;;;;;5117660;27;20043;-86
2023/07/21 14:45:56;;;;;;;8.00;3.05;;;19.00;81.80;;;;;;5135957;27;20049;-85
2023/07/21 14:48:21;;;;;;;7.30;2.40;;;19.40;81.60;;;;;;5139225;27;20316;-86
2023/07/21 14:50:48;;;;;;;5.15;2.70;;;19.60;80.90;;;;;;5135967;27;20027;-86
2023/07/21 14:53:14;;;;;;;5.43;2.65;;;19.80;80.60;;;;;;5134680;27;20399;-87
2023/07/21 14:55:39;;;;;;;6.05;2.00;;;19.90;79.10;;;;;;5134488;27;20065;-87
2023/07/21 14:58:05;;;;;;;4.75;2.00;;;19.80;79.80;;;;;;5134649;27;20517;-87
2023/07/21 15:00:31;;;;;;;4.55;2.33;;;20.00;78.40;;;;;;5116674;28;20027;-87
2023/07/21 15:02:56;;;;;;;6.35;2.70;;;20.10;78.30;;;;;;5116570;28;20015;-87
2023/07/21 15:05:22;;;;;;;6.85;2.33;;;20.10;78.20;;;;;;5115269;28;20412;-87
2023/07/21 15:07:48;;;;;;;5.03;2.40;;;20.20;78.00;;;;;;5120003;27;20412;-87
2023/07/21 15:10:14;;;;;;;6.18;2.10;;;20.20;78.80;;;;;;5116321;28;20020;-87
2023/07/21 15:12:41;;;;;;;5.25;2.20;;;19.90;78.00;;;;;;5116375;28;20035;-87
2023/07/21 15:15:07;;;;;;;6.28;2.15;;;19.90;79.00;;;;;;5135801;27;20019;-87
2023/07/21 15:17:33;;;;;;;4.60;2.10;;;19.50;80.10;;;;;;5137052;27;20019;-87
2023/07/21 15:19:58;;;;;;;4.25;2.05;;;19.20;81.50;;;;;;5135818;27;20092;-86
2023/07/21 15:22:24;;;;;;;4.88;2.10;;;19.20;82.20;;;;;;5135148;27;20015;-87
2023/07/21 15:24:50;;;;;;;6.10;2.13;;;19.20;81.90;;;;;;5116395;28;20030;-87
2023/07/21 15:27:16;;;;;;;7.53;2.33;;;18.90;82.40;;;;;;5116324;28;20032;-86
2023/07/21 15:29:41;;;;;;;6.47;2.40;;;18.50;84.70;;;;;;5129127;27;20031;-87